Time;durP1;ratioP1;P1;durP2;ratioP2;P2;SDS_P1;SDS_P2;PMS_P1;PMS_P2;Temp;Humidity;BMP_temperature;BMP_pressure;BME280_temperature;BME280_humidity;BME280_pressure;Samples;Min_cycle;Max_cycle;Signal;HPM_P1;HPM_P2
2022/06/06 00:01:35;;;;;;;2.42;1.75;;;20.50;95.70;;;;;;10013765;28;20528;-61
2022/06/06 00:06:26;;;;;;;2.65;1.73;;;20.50;96.00;;;;;;10012165;28;20125;-59
2022/06/06 00:11:18;;;;;;;4.22;2.35;;;20.60;96.00;;;;;;10012532;28;20485;-60
2022/06/06 00:16:09;;;;;;;4.15;1.98;;;20.60;95.90;;;;;;10017363;28;20052;-60
2022/06/06 00:21:00;;;;;;;2.97;2.15;;;20.40;96.10;;;;;;10021609;28;20124;-60
2022/06/06 00:25:51;;;;;;;4.32;2.22;;;20.30;96.20;;;;;;10020845;28;20762;-60
2022/06/06 00:30:41;;;;;;;3.20;2.00;;;20.30;96.30;;;;;;10020658;28;20347;-61
2022/06/06 00:35:32;;;;;;;3.05;2.13;;;20.40;96.20;;;;;;10020782;28;20022;-61
2022/06/06 00:40:25;;;;;;;3.17;2.28;;;20.20;96.40;;;;;;10002031;28;20270;-60
2022/06/06 00:45:36;;;;;;;2.70;2.13;;;20.20;96.30;;;;;;10019304;28;20472;-61
2022/06/06 00:50:53;;;;;;;4.82;2.75;;;20.20;96.40;;;;;;10018900;28;20046;-61
2022/06/06 00:55:59;;;;;;;4.35;2.25;;;20.20;96.40;;;;;;10007740;28;20030;-61
2022/06/06 01:00:51;;;;;;;4.32;2.15;;;20.20;96.40;;;;;;10018906;28;20435;-61
2022/06/06 01:05:47;;;;;;;4.38;2.25;;;20.00;96.60;;;;;;10019015;28;20084;-60
2022/06/06 01:10:37;;;;;;;;;;;20.00;96.60;;;;;;10017677;28;20022;-60
2022/06/06 01:15:35;;;;;;;4.55;2.55;;;20.00;96.70;;;;;;10016181;28;19909;-60
2022/06/06 01:20:58;;;;;;;5.75;2.45;;;20.00;96.60;;;;;;10017726;28;20022;-60
2022/06/06 01:26:06;;;;;;;4.78;2.35;;;19.90;96.70;;;;;;10023920;28;20049;-62
2022/06/06 01:31:01;;;;;;;4.72;2.08;;;19.80;96.80;;;;;;10017287;28;20053;-61
2022/06/06 01:35:51;;;;;;;4.18;2.15;;;19.70;96.90;;;;;;10017707;28;20049;-60
2022/06/06 01:41:06;;;;;;;5.15;2.70;;;19.70;96.90;;;;;;10017322;28;20409;-61
2022/06/06 01:46:02;;;;;;;5.10;3.35;;;19.80;96.90;;;;;;10016708;28;20029;-60
2022/06/06 01:50:53;;;;;;;5.93;2.78;;;19.80;96.80;;;;;;9998677;28;20050;-60
2022/06/06 01:55:46;;;;;;;6.13;2.70;;;19.70;97.10;;;;;;10016964;28;20038;-60
2022/06/06 02:00:38;;;;;;;4.78;2.65;;;19.50;97.30;;;;;;10016011;28;20029;-60
2022/06/06 02:05:29;;;;;;;2.97;2.67;;;19.40;97.40;;;;;;10016142;28;20526;-61
2022/06/06 02:10:21;;;;;;;3.15;2.30;;;19.30;97.50;;;;;;10016134;28;20125;-60
2022/06/06 02:15:14;;;;;;;4.85;2.90;;;19.30;97.60;;;;;;9998784;28;20121;-60
2022/06/06 02:20:06;;;;;;;3.75;2.40;;;19.30;97.60;;;;;;10015779;28;20061;-61
2022/06/06 02:24:57;;;;;;;3.40;2.58;;;19.40;97.70;;;;;;10015394;28;20134;-60
2022/06/06 02:29:48;;;;;;;4.68;2.72;;;19.30;97.70;;;;;;9997588;28;20014;-60
2022/06/06 02:34:39;;;;;;;3.67;2.63;;;19.30;97.80;;;;;;10015820;28;20109;-61
2022/06/06 02:39:29;;;;;;;4.03;2.80;;;19.10;98.00;;;;;;10015330;28;20132;-61
2022/06/06 02:44:21;;;;;;;4.97;3.45;;;19.20;98.10;;;;;;9997371;28;20399;-60
2022/06/06 02:49:11;;;;;;;3.58;2.80;;;19.30;97.90;;;;;;10013536;28;20061;-60
2022/06/06 02:54:03;;;;;;;4.68;2.85;;;19.30;98.00;;;;;;10015142;28;20551;-61
2022/06/06 02:58:57;;;;;;;5.30;2.50;;;19.40;98.00;;;;;;10012303;28;20080;-60
2022/06/06 03:03:48;;;;;;;4.18;2.75;;;19.20;98.10;;;;;;10014878;28;20095;-60
2022/06/06 03:09:01;;;;;;;3.78;2.47;;;19.20;98.20;;;;;;9993577;28;20032;-60
2022/06/06 03:14:10;;;;;;;4.05;2.80;;;19.10;98.40;;;;;;10006269;28;20460;-61
2022/06/06 03:24:32;;;;;;;3.95;2.35;;;19.20;98.20;;;;;;10015328;28;20506;-61
2022/06/06 03:29:41;;;;;;;3.58;2.80;;;19.30;98.30;;;;;;10014100;28;20362;-60
2022/06/06 03:34:44;;;;;;;3.22;2.63;;;19.30;98.40;;;;;;10013216;28;20552;-61
2022/06/06 03:39:56;;;;;;;3.80;3.13;;;19.30;98.40;;;;;;10002994;28;20022;-59
2022/06/06 03:45:11;;;;;;;4.68;2.78;;;19.50;98.30;;;;;;10013736;28;20240;-60
2022/06/06 03:50:05;;;;;;;4.15;2.85;;;19.30;98.30;;;;;;10000563;28;20349;-62
2022/06/06 03:55:33;;;;;;;4.13;2.92;;;19.20;98.50;;;;;;10025956;28;20144;-61
2022/06/06 04:00:24;;;;;;;3.75;2.60;;;19.40;98.40;;;;;;10019344;28;20105;-61
2022/06/06 04:05:18;;;;;;;3.80;2.95;;;19.40;98.40;;;;;;10007984;28;20029;-61
2022/06/06 04:10:10;;;;;;;6.43;2.80;;;19.50;98.50;;;;;;10015858;28;20040;-60
2022/06/06 04:15:31;;;;;;;5.00;2.72;;;19.40;98.40;;;;;;10015433;28;20026;-61
2022/06/06 04:20:35;;;;;;;4.03;3.00;;;19.30;98.50;;;;;;10030101;28;20524;-61
2022/06/06 04:25:47;;;;;;;5.80;3.47;;;19.30;98.50;;;;;;10026903;28;20103;-61
2022/06/06 04:30:53;;;;;;;4.97;3.20;;;19.40;98.50;;;;;;10023553;28;20053;-60
2022/06/06 04:36:11;;;;;;;4.53;2.97;;;19.40;98.50;;;;;;10024015;28;20099;-60
2022/06/06 04:41:27;;;;;;;4.93;2.95;;;19.40;98.50;;;;;;10013687;28;20086;-60
2022/06/06 04:46:46;;;;;;;4.15;3.15;;;19.40;98.40;;;;;;10014906;28;20132;-61
2022/06/06 04:51:39;;;;;;;6.93;3.20;;;19.40;98.50;;;;;;10025489;28;20045;-61
2022/06/06 04:56:32;;;;;;;6.30;3.28;;;19.40;98.50;;;;;;10028827;28;20446;-61
2022/06/06 05:01:24;;;;;;;4.18;2.97;;;19.50;98.50;;;;;;10025537;28;20033;-62
2022/06/06 05:06:33;;;;;;;3.95;3.08;;;19.50;98.40;;;;;;10017207;28;20332;-60
2022/06/06 05:12:01;;;;;;;4.40;2.78;;;19.60;98.50;;;;;;10018561;28;20077;-62
2022/06/06 05:17:25;;;;;;;5.43;3.35;;;19.80;98.40;;;;;;9988672;28;20412;-61
2022/06/06 05:22:41;;;;;;;5.22;3.08;;;20.00;98.30;;;;;;10010709;28;20415;-62
2022/06/06 05:28:07;;;;;;;3.28;2.97;;;20.10;98.10;;;;;;10013050;28;20092;-60
2022/06/06 05:33:02;;;;;;;6.68;2.70;;;20.20;98.00;;;;;;10009093;28;20022;-61
2022/06/06 05:38:22;;;;;;;;;;;20.40;98.10;;;;;;10007695;28;20034;-61
2022/06/06 05:43:59;;;;;;;5.32;3.05;;;20.50;97.80;;;;;;9963076;28;19913;-61
2022/06/06 05:48:55;;;;;;;5.15;2.67;;;20.50;98.00;;;;;;10005279;28;20626;-60
2022/06/06 05:54:04;;;;;;;6.00;2.58;;;20.50;97.90;;;;;;10016345;28;20508;-60
2022/06/06 05:59:01;;;;;;;4.95;3.20;;;20.60;97.70;;;;;;10011382;28;20208;-60
2022/06/06 06:03:58;;;;;;;4.22;2.35;;;20.60;97.60;;;;;;9998103;28;20115;-60
2022/06/06 06:08:48;;;;;;;2.83;2.33;;;20.60;97.50;;;;;;10014998;28;20095;-60
2022/06/06 06:14:02;;;;;;;3.78;2.80;;;20.70;97.40;;;;;;10015750;28;20026;-60
2022/06/06 06:19:04;;;;;;;6.18;2.38;;;20.80;97.10;;;;;;10015834;28;20034;-60
2022/06/06 06:24:09;;;;;;;4.25;2.83;;;20.90;97.00;;;;;;10014987;28;20444;-61
2022/06/06 06:29:03;;;;;;;4.30;2.70;;;20.80;96.80;;;;;;10010242;28;20457;-61
2022/06/06 06:34:15;;;;;;;4.93;2.60;;;21.00;96.80;;;;;;10016453;28;20033;-60
2022/06/06 06:39:25;;;;;;;3.72;2.63;;;21.20;96.50;;;;;;10015124;28;20105;-61
2022/06/06 06:44:39;;;;;;;4.70;2.67;;;21.30;96.40;;;;;;10013534;28;20042;-60
2022/06/06 06:50:01;;;;;;;4.43;2.55;;;21.50;96.30;;;;;;10014393;28;20042;-60
2022/06/06 06:54:55;;;;;;;3.65;2.25;;;21.60;95.90;;;;;;9974884;28;20042;-61
2022/06/06 07:00:04;;;;;;;7.15;3.25;;;21.60;96.00;;;;;;10014103;28;20030;-61
2022/06/06 07:10:33;;;;;;;3.30;2.05;;;21.80;95.50;;;;;;10005709;28;20562;-61
2022/06/06 07:15:45;;;;;;;2.33;2.13;;;21.70;95.60;;;;;;10013822;28;20048;-60
2022/06/06 07:20:40;;;;;;;3.20;2.08;;;21.70;95.40;;;;;;10013428;28;20030;-61
2022/06/06 07:25:40;;;;;;;2.92;2.30;;;21.70;95.10;;;;;;10006617;28;20396;-61
2022/06/06 07:30:38;;;;;;;5.28;2.33;;;21.60;95.10;;;;;;10013446;28;20049;-61
2022/06/06 07:35:59;;;;;;;3.33;2.55;;;21.70;95.00;;;;;;10013381;28;20435;-61
2022/06/06 07:40:55;;;;;;;2.35;2.13;;;21.70;94.80;;;;;;9982620;28;20312;-60
2022/06/06 07:45:48;;;;;;;3.42;2.47;;;21.70;94.80;;;;;;10013052;28;20042;-61
2022/06/06 07:51:03;;;;;;;2.60;2.08;;;21.80;94.60;;;;;;10013407;28;20048;-60
2022/06/06 07:55:59;;;;;;;;;;;22.10;94.30;;;;;;10011581;28;20026;-61
2022/06/06 08:01:22;;;;;;;5.20;2.25;;;22.30;94.10;;;;;;10013787;28;19906;-61
2022/06/06 08:06:39;;;;;;;4.32;2.30;;;22.40;93.90;;;;;;10012999;28;20042;-61
2022/06/06 08:11:48;;;;;;;3.28;1.98;;;22.00;94.10;;;;;;9993345;28;20034;-61
2022/06/06 08:16:46;;;;;;;3.80;2.38;;;22.00;93.90;;;;;;10012923;28;20030;-60
2022/06/06 08:21:49;;;;;;;2.03;1.83;;;22.10;93.80;;;;;;10009093;28;20018;-62
2022/06/06 08:26:43;;;;;;;3.85;1.90;;;22.30;93.30;;;;;;10007848;28;20748;-61
2022/06/06 08:31:34;;;;;;;2.55;1.77;;;22.40;93.00;;;;;;10012665;28;20026;-61
2022/06/06 08:36:33;;;;;;;3.22;2.15;;;22.40;92.80;;;;;;10015221;28;20109;-60
2022/06/06 08:41:57;;;;;;;7.72;4.50;;;22.70;92.20;;;;;;10020234;28;20030;-61
2022/06/06 08:46:47;;;;;;;2.28;1.88;;;23.20;91.70;;;;;;10019751;28;20512;-61
2022/06/06 08:51:44;;;;;;;4.70;2.25;;;23.20;91.70;;;;;;10019815;28;20288;-61
2022/06/06 08:56:46;;;;;;;2.67;2.38;;;23.40;91.60;;;;;;10021625;28;20022;-60
2022/06/06 09:01:58;;;;;;;2.67;2.30;;;23.70;91.10;;;;;;10019045;28;20022;-61
2022/06/06 09:07:22;;;;;;;3.58;2.17;;;23.80;90.80;;;;;;10020378;28;20458;-61
2022/06/06 09:12:31;;;;;;;4.00;2.10;;;24.20;90.80;;;;;;9943283;28;20519;-60
2022/06/06 09:17:30;;;;;;;6.30;2.30;;;24.40;90.00;;;;;;10019512;28;20080;-61
2022/06/06 09:22:55;;;;;;;3.13;2.03;;;24.50;90.20;;;;;;10019487;28;20121;-62
2022/06/06 09:28:29;;;;;;;3.42;1.95;;;24.30;90.30;;;;;;10015935;28;20116;-62
2022/06/06 09:33:35;;;;;;;2.47;2.28;;;24.40;90.00;;;;;;9957320;28;20045;-61
2022/06/06 09:38:51;;;;;;;4.50;2.25;;;24.50;90.00;;;;;;10018263;28;20385;-61
2022/06/06 09:44:21;;;;;;;3.90;2.55;;;24.50;89.10;;;;;;10014572;28;20053;-60
2022/06/06 09:49:41;;;;;;;3.15;1.42;;;24.50;88.50;;;;;;10015594;28;20046;-61
2022/06/06 10:00:28;;;;;;;2.28;1.67;;;24.20;87.20;;;;;;10016689;28;20107;-61
2022/06/06 10:05:33;;;;;;;4.05;3.08;;;24.20;87.90;;;;;;10016815;28;20467;-60
2022/06/06 10:10:42;;;;;;;3.97;2.95;;;23.90;87.80;;;;;;10008578;28;20171;-60
2022/06/06 10:15:49;;;;;;;3.63;2.50;;;23.90;87.30;;;;;;10018296;28;20022;-61
2022/06/06 10:20:57;;;;;;;2.00;1.35;;;24.00;87.40;;;;;;10005188;28;20426;-61
2022/06/06 10:26:11;;;;;;;3.00;2.00;;;23.90;86.70;;;;;;10011239;28;20041;-61
2022/06/06 10:31:05;;;;;;;2.95;1.70;;;24.10;86.00;;;;;;10015838;28;20037;-61
2022/06/06 10:36:08;;;;;;;2.13;1.67;;;24.10;86.00;;;;;;10015527;28;20400;-61
2022/06/06 10:41:05;;;;;;;2.22;1.88;;;24.00;85.50;;;;;;10015585;28;20126;-60
2022/06/06 10:46:06;;;;;;;2.15;1.73;;;24.00;85.30;;;;;;10001720;28;20038;-59
2022/06/06 10:56:20;;;;;;;3.85;2.25;;;24.60;84.30;;;;;;10014738;28;20053;-60
2022/06/06 11:01:11;;;;;;;6.03;1.73;;;25.40;83.20;;;;;;10013187;28;20387;-61
2022/06/06 11:06:22;;;;;;;4.18;1.67;;;25.60;82.30;;;;;;10013210;28;20136;-61
2022/06/06 11:11:19;;;;;;;4.03;1.90;;;25.50;81.60;;;;;;10013727;28;20022;-60
2022/06/06 11:16:31;;;;;;;2.90;1.40;;;25.50;81.40;;;;;;10013776;28;20048;-60
2022/06/06 11:21:37;;;;;;;1.90;1.60;;;25.40;81.40;;;;;;10013010;28;20049;-62
2022/06/06 11:26:33;;;;;;;3.78;1.80;;;25.50;80.90;;;;;;10013189;28;20388;-61
2022/06/06 11:31:45;;;;;;;2.15;1.70;;;26.00;80.00;;;;;;10006189;28;20446;-61
2022/06/06 11:36:39;;;;;;;2.65;2.10;;;26.20;78.40;;;;;;10010637;28;20306;-60
2022/06/06 11:41:41;;;;;;;1.92;1.63;;;26.10;79.00;;;;;;10012634;28;20022;-60
2022/06/06 11:47:20;;;;;;;3.35;1.77;;;26.30;78.60;;;;;;10012485;28;20427;-61
2022/06/06 11:52:52;;;;;;;3.97;1.77;;;26.30;77.70;;;;;;9890659;29;20062;-61
2022/06/06 11:58:33;;;;;;;1.35;1.23;;;25.80;78.30;;;;;;10001443;28;20117;-61
2022/06/06 12:03:59;;;;;;;2.40;1.63;;;25.00;78.60;;;;;;10011130;28;20026;-61
2022/06/06 12:09:01;;;;;;;2.67;1.67;;;24.70;79.00;;;;;;9995686;28;20085;-60
2022/06/06 12:14:14;;;;;;;1.83;1.27;;;24.30;79.10;;;;;;10012376;28;20026;-62
2022/06/06 12:19:42;;;;;;;2.13;1.60;;;24.20;79.10;;;;;;10019975;28;20065;-61
2022/06/06 12:24:51;;;;;;;1.92;1.15;;;24.10;78.60;;;;;;10020758;28;20037;-62
2022/06/06 12:30:07;;;;;;;1.90;1.30;;;24.10;78.40;;;;;;10013494;28;20072;-62
2022/06/06 12:35:12;;;;;;;2.67;1.88;;;24.40;77.60;;;;;;10021052;28;20037;-63
2022/06/06 12:40:29;;;;;;;3.03;1.73;;;25.00;74.60;;;;;;10021491;28;20042;-60
2022/06/06 12:45:42;;;;;;;2.38;1.25;;;25.70;74.60;;;;;;9971246;28;20053;-62
2022/06/06 12:50:57;;;;;;;3.53;1.38;;;26.00;72.40;;;;;;10019113;28;20053;-61
2022/06/06 13:01:38;;;;;;;1.10;0.98;;;26.50;70.50;;;;;;10019826;28;20204;-61
2022/06/06 13:06:47;;;;;;;2.55;0.95;;;26.40;67.30;;;;;;10015142;28;20050;-61
2022/06/06 13:12:11;;;;;;;2.70;1.20;;;25.80;66.70;;;;;;10017064;28;20062;-61
2022/06/06 13:17:29;;;;;;;2.40;1.20;;;25.50;67.30;;;;;;10013417;28;20120;-60
2022/06/06 13:22:28;;;;;;;1.58;1.35;;;25.60;65.30;;;;;;10011177;28;20037;-61
2022/06/06 13:27:51;;;;;;;3.38;1.20;;;25.40;66.80;;;;;;10012274;28;20274;-61
2022/06/06 13:33:09;;;;;;;1.15;1.05;;;26.30;68.80;;;;;;10017183;28;20025;-61
2022/06/06 13:38:36;;;;;;;1.77;1.02;;;25.90;68.80;;;;;;10007991;28;20037;-60
2022/06/06 13:43:54;;;;;;;1.20;1.10;;;25.30;69.40;;;;;;10017941;28;20469;-62
2022/06/06 13:49:06;;;;;;;3.80;1.10;;;25.10;69.70;;;;;;10017145;28;20331;-61
2022/06/06 13:54:05;;;;;;;1.63;1.45;;;24.70;69.90;;;;;;10013857;28;20056;-61
2022/06/06 13:59:18;;;;;;;1.88;1.50;;;24.40;70.20;;;;;;10016321;28;20024;-60
2022/06/06 14:04:20;;;;;;;9.68;1.73;;;24.10;70.60;;;;;;10017548;28;20539;-60
2022/06/06 14:09:15;;;;;;;1.45;1.05;;;23.80;71.40;;;;;;9999970;28;20044;-61
2022/06/06 14:14:08;;;;;;;4.03;1.75;;;23.50;71.90;;;;;;10016707;28;20137;-59
2022/06/06 14:19:10;;;;;;;2.10;1.40;;;23.30;72.60;;;;;;10016383;28;20084;-61
2022/06/06 14:24:10;;;;;;;2.50;1.20;;;23.30;73.40;;;;;;10011552;28;20037;-61
2022/06/06 14:29:33;;;;;;;2.17;1.00;;;23.20;73.10;;;;;;10012573;28;20596;-61
2022/06/06 14:34:26;;;;;;;2.28;1.40;;;23.30;73.20;;;;;;9984799;28;20030;-62
2022/06/06 14:39:24;;;;;;;3.08;1.13;;;23.40;73.20;;;;;;10015116;28;20026;-61
2022/06/06 14:44:30;;;;;;;1.75;1.38;;;23.50;73.20;;;;;;10015346;28;20042;-62
2022/06/06 14:49:28;;;;;;;1.08;0.98;;;23.50;73.10;;;;;;9994618;28;20551;-61
2022/06/06 14:54:20;;;;;;;1.00;0.95;;;23.70;73.00;;;;;;10014441;28;20475;-60
2022/06/06 14:59:15;;;;;;;2.05;1.10;;;23.80;73.00;;;;;;10014078;28;20049;-60
2022/06/06 15:04:20;;;;;;;;;;;24.00;72.90;;;;;;10015435;28;20038;-63
2022/06/06 15:09:19;;;;;;;1.52;0.90;;;23.90;72.80;;;;;;10013099;28;20125;-61
2022/06/06 15:14:26;;;;;;;2.00;1.42;;;24.00;72.80;;;;;;10008296;28;20563;-61
2022/06/06 15:19:37;;;;;;;2.85;1.25;;;24.00;72.60;;;;;;10012657;28;20022;-61
2022/06/06 15:24:43;;;;;;;0.88;0.82;;;23.90;72.70;;;;;;10013418;28;20030;-61
2022/06/06 15:30:23;;;;;;;2.58;1.50;;;24.00;72.20;;;;;;10014523;28;20076;-61
2022/06/06 15:35:32;;;;;;;5.13;1.05;;;23.90;71.70;;;;;;10000295;28;20391;-61
2022/06/06 15:40:26;;;;;;;1.65;0.90;;;24.00;71.80;;;;;;10015443;28;20026;-60
2022/06/06 15:45:54;;;;;;;3.33;0.90;;;24.20;71.10;;;;;;10013899;28;20038;-60
2022/06/06 15:50:55;;;;;;;1.23;0.90;;;24.20;70.20;;;;;;10011213;28;20050;-60
2022/06/06 15:56:12;;;;;;;1.70;1.08;;;24.30;69.90;;;;;;10010649;28;20062;-60
2022/06/06 16:01:18;;;;;;;3.35;0.98;;;24.70;69.60;;;;;;9972981;28;20087;-60
2022/06/06 16:06:11;;;;;;;1.58;1.25;;;24.40;68.40;;;;;;10012240;28;20508;-59
2022/06/06 16:11:26;;;;;;;2.08;1.42;;;24.60;67.90;;;;;;10012668;28;20481;-60
2022/06/06 16:16:19;;;;;;;2.00;0.80;;;24.70;66.90;;;;;;10012855;28;20026;-60
2022/06/06 16:21:20;;;;;;;3.00;1.00;;;25.10;66.30;;;;;;9994659;28;20589;-60
2022/06/06 16:26:37;;;;;;;1.35;0.95;;;26.50;64.30;;;;;;10011876;28;20069;-60
2022/06/06 16:31:39;;;;;;;1.75;0.95;;;26.60;63.30;;;;;;10004424;28;20076;-59
2022/06/06 16:36:54;;;;;;;1.67;1.00;;;25.90;64.50;;;;;;10010913;28;20026;-60
2022/06/06 16:52:52;;;;;;;4.00;1.05;;;25.30;62.90;;;;;;10010414;28;20049;-59
2022/06/06 16:58:13;;;;;;;2.13;1.20;;;25.20;62.70;;;;;;10020716;28;20124;-61
2022/06/06 17:03:24;;;;;;;1.60;1.23;;;25.20;62.00;;;;;;10015584;28;20399;-61
2022/06/06 17:08:20;;;;;;;1.10;1.00;;;25.90;60.80;;;;;;10020140;28;20456;-58
2022/06/06 17:13:29;;;;;;;2.63;0.85;;;25.40;61.10;;;;;;10020241;28;20049;-60
2022/06/06 17:18:36;;;;;;;1.13;0.95;;;25.10;60.60;;;;;;10019947;28;20111;-61
2022/06/06 17:23:32;;;;;;;1.20;0.80;;;24.80;61.50;;;;;;10005454;28;20069;-60
2022/06/06 17:28:26;;;;;;;1.77;1.00;;;24.50;61.60;;;;;;10019181;28;20461;-61
2022/06/06 17:33:30;;;;;;;1.58;1.13;;;24.30;61.70;;;;;;10019383;28;20434;-59
2022/06/06 17:38:27;;;;;;;2.73;1.00;;;24.30;61.60;;;;;;10019072;28;20026;-58
2022/06/06 17:43:45;;;;;;;2.60;0.82;;;25.00;61.00;;;;;;10019018;28;20026;-60
2022/06/06 17:49:04;;;;;;;1.95;0.93;;;27.30;57.80;;;;;;10018103;28;20698;-61
2022/06/06 17:54:16;;;;;;;0.88;0.77;;;26.60;57.00;;;;;;10018871;28;20092;-59
2022/06/06 17:59:41;;;;;;;3.08;1.20;;;27.30;56.90;;;;;;10018070;28;20041;-60
2022/06/06 18:05:00;;;;;;;1.35;1.02;;;25.90;57.60;;;;;;10017703;28;20033;-60
2022/06/06 18:10:18;;;;;;;1.25;1.00;;;24.90;59.20;;;;;;10016237;28;20029;-60
2022/06/06 18:15:21;;;;;;;2.05;1.08;;;24.30;60.00;;;;;;10011065;28;20041;-61
2022/06/06 18:20:34;;;;;;;1.95;0.60;;;24.40;59.70;;;;;;10012545;28;20025;-61
2022/06/06 18:25:32;;;;;;;1.83;0.82;;;23.80;60.90;;;;;;10014217;28;20037;-60
2022/06/06 18:30:29;;;;;;;2.90;0.88;;;23.40;61.50;;;;;;10013703;28;20368;-60
2022/06/06 18:35:38;;;;;;;1.25;1.13;;;23.30;62.00;;;;;;10012836;28;20135;-60
2022/06/06 18:40:36;;;;;;;1.90;1.20;;;23.30;62.00;;;;;;10015256;28;20038;-60
2022/06/06 18:45:30;;;;;;;1.08;0.80;;;23.40;62.30;;;;;;10015998;28;20034;-61
2022/06/06 18:50:26;;;;;;;1.90;1.43;;;23.30;62.80;;;;;;10014249;28;20495;-60
2022/06/06 18:55:17;;;;;;;2.95;1.20;;;23.20;63.10;;;;;;10015893;28;20022;-63
2022/06/06 19:00:14;;;;;;;1.25;0.82;;;23.20;63.40;;;;;;10016712;28;20037;-60
2022/06/06 19:05:15;;;;;;;2.08;1.00;;;23.20;63.70;;;;;;10015133;28;20136;-61
2022/06/06 19:10:23;;;;;;;3.75;1.92;;;23.10;64.00;;;;;;10016099;28;20022;-60
2022/06/06 19:15:38;;;;;;;1.50;1.00;;;23.10;64.30;;;;;;10005297;28;20018;-60
2022/06/06 19:20:54;;;;;;;1.88;1.40;;;23.00;64.60;;;;;;10007101;28;20106;-61
2022/06/06 19:26:01;;;;;;;;;;;22.80;65.10;;;;;;10011926;28;20120;-59
2022/06/06 19:30:52;;;;;;;2.78;1.00;;;22.60;65.40;;;;;;10016273;28;20001;-60
2022/06/06 19:35:53;;;;;;;1.80;0.95;;;22.50;65.60;;;;;;10019378;28;20129;-59
2022/06/06 19:40:44;;;;;;;3.28;1.00;;;22.40;65.70;;;;;;10018554;28;20166;-60
2022/06/06 19:45:35;;;;;;;2.53;0.93;;;22.30;65.90;;;;;;10016181;28;20280;-59
2022/06/06 19:50:44;;;;;;;0.88;0.80;;;22.30;66.00;;;;;;10015823;28;20046;-60
2022/06/06 19:55:45;;;;;;;1.80;1.23;;;22.40;66.10;;;;;;10012014;28;20092;-59
2022/06/06 20:00:45;;;;;;;2.42;1.10;;;22.50;66.10;;;;;;10010551;28;20018;-61
2022/06/06 20:05:38;;;;;;;1.65;0.98;;;22.40;66.30;;;;;;9996897;28;20190;-59
2022/06/06 20:10:32;;;;;;;1.90;1.17;;;22.30;66.50;;;;;;10015040;28;20029;-60
2022/06/06 20:15:27;;;;;;;0.85;0.70;;;22.30;66.70;;;;;;10015429;28;20034;-60
2022/06/06 20:20:25;;;;;;;1.60;1.08;;;22.30;66.90;;;;;;10014601;28;20500;-59
2022/06/06 20:25:20;;;;;;;2.30;1.00;;;22.20;67.10;;;;;;10014465;28;20049;-63
2022/06/06 20:30:17;;;;;;;1.58;1.15;;;22.20;67.20;;;;;;10014360;28;20565;-59
2022/06/06 20:35:10;;;;;;;2.28;1.30;;;22.20;67.50;;;;;;10000358;28;20026;-62
2022/06/06 20:40:00;;;;;;;2.45;1.35;;;22.10;67.60;;;;;;10019310;28;20088;-59
2022/06/06 20:44:51;;;;;;;1.15;0.90;;;22.10;67.80;;;;;;10017611;28;20099;-61
2022/06/06 20:49:50;;;;;;;2.72;0.90;;;22.20;68.60;;;;;;10023367;28;20093;-62
2022/06/06 20:54:49;;;;;;;1.25;1.05;;;22.10;68.20;;;;;;10019676;28;20838;-61
2022/06/06 20:59:40;;;;;;;1.52;1.42;;;22.20;68.40;;;;;;10012794;28;20084;-60
2022/06/06 21:04:30;;;;;;;1.20;0.85;;;22.10;68.80;;;;;;10001234;28;20041;-61
2022/06/06 21:09:29;;;;;;;1.83;1.08;;;22.00;69.10;;;;;;10020781;28;20503;-60
2022/06/06 21:14:20;;;;;;;3.22;2.00;;;22.00;69.30;;;;;;10020060;28;20393;-62
2022/06/06 21:19:11;;;;;;;2.13;1.08;;;22.10;69.40;;;;;;10021045;28;20038;-60
2022/06/06 21:24:03;;;;;;;1.38;1.25;;;22.00;69.70;;;;;;10018837;28;20135;-61
2022/06/06 21:28:55;;;;;;;1.77;0.98;;;21.90;71.10;;;;;;10017027;28;20072;-59
2022/06/06 21:33:47;;;;;;;2.05;1.17;;;21.60;71.20;;;;;;10018192;28;20212;-60
2022/06/06 21:38:37;;;;;;;2.95;1.05;;;21.60;71.90;;;;;;10019662;28;20028;-61
2022/06/06 21:43:28;;;;;;;2.13;1.38;;;21.40;72.60;;;;;;10017485;28;20457;-60
2022/06/06 21:48:19;;;;;;;1.77;1.00;;;21.30;73.30;;;;;;10017301;28;20033;-61
2022/06/06 21:53:09;;;;;;;5.13;1.42;;;21.30;74.00;;;;;;10017891;28;20289;-61
2022/06/06 21:58:00;;;;;;;1.92;0.98;;;21.30;74.40;;;;;;10016341;28;20026;-60
2022/06/06 22:02:51;;;;;;;2.15;1.35;;;21.10;75.40;;;;;;10016463;28;20071;-61
2022/06/06 22:07:43;;;;;;;1.50;1.13;;;21.00;76.90;;;;;;10015919;28;20038;-62
2022/06/06 22:12:34;;;;;;;1.27;0.90;;;20.90;77.00;;;;;;9998607;28;20091;-59
2022/06/06 22:17:25;;;;;;;1.35;1.15;;;20.80;78.10;;;;;;9999209;28;20029;-60
2022/06/06 22:22:16;;;;;;;1.10;0.80;;;20.80;78.90;;;;;;10016508;28;20022;-61
2022/06/06 22:27:07;;;;;;;1.33;0.93;;;20.80;79.30;;;;;;10015541;28;20195;-60
2022/06/06 22:31:57;;;;;;;2.58;1.02;;;20.90;79.60;;;;;;10016583;28;20029;-60
2022/06/06 22:36:48;;;;;;;4.05;1.55;;;20.90;80.60;;;;;;10014745;28;20037;-59
2022/06/06 22:41:39;;;;;;;2.25;1.48;;;20.90;81.70;;;;;;10015697;28;20033;-61
2022/06/06 22:46:30;;;;;;;1.95;1.00;;;20.80;82.00;;;;;;9996587;28;20068;-60
2022/06/06 22:51:20;;;;;;;1.20;1.10;;;20.80;82.80;;;;;;10008914;28;20097;-60
2022/06/06 22:56:13;;;;;;;2.25;1.38;;;20.80;83.50;;;;;;10015366;28;20392;-60
2022/06/06 23:01:06;;;;;;;1.45;0.82;;;20.80;84.40;;;;;;10014431;28;20028;-60
2022/06/06 23:05:56;;;;;;;1.15;1.00;;;20.70;85.10;;;;;;10012425;28;20026;-60
2022/06/06 23:10:47;;;;;;;1.35;0.93;;;20.60;85.40;;;;;;10015088;28;20029;-60
2022/06/06 23:15:37;;;;;;;1.25;0.80;;;20.40;86.00;;;;;;10014082;28;20036;-60
2022/06/06 23:20:28;;;;;;;2.28;1.02;;;20.30;86.80;;;;;;10014133;28;20553;-59
2022/06/06 23:25:19;;;;;;;2.47;0.98;;;20.30;87.50;;;;;;10013942;28;20045;-61
2022/06/06 23:30:10;;;;;;;5.88;1.10;;;20.20;87.90;;;;;;10013247;28;20117;-60
2022/06/06 23:35:01;;;;;;;1.58;1.00;;;20.20;88.50;;;;;;10012280;28;20062;-59
2022/06/06 23:39:57;;;;;;;3.97;1.90;;;20.10;89.10;;;;;;10013116;28;20042;-59
2022/06/06 23:50:04;;;;;;;2.38;1.13;;;19.90;90.20;;;;;;10007068;28;20094;-61
2022/06/06 23:54:55;;;;;;;2.22;1.58;;;19.90;90.50;;;;;;10013188;28;20526;-60
2022/06/06 23:59:49;;;;;;;2.50;1.13;;;19.90;90.70;;;;;;10012677;28;20546;-61
